Terminal Aerodrome Forecast
Issued by NWS Albany, NY

Home | Current Version | Previous Version | Text Only | Print | Product List | Glossary On
Versions: 1 2 3 4 5 6 7 8 9 10 11 12 13 14 15 16 17 18
000
FTUS41 KALY 161120
TAFPOU
TAF
KPOU 161120Z 1612/1712 19004KT P6SM SCT250
     FM162300 20004KT P6SM BKN200
     FM170200 VRB02KT P6SM SCT060 BKN100
     FM170600 VRB02KT P6SM BKN050 OVC080=

USA.gov is the U.S. government's official web portal to all federal, state and local government web resources and services.